CDT,Max TemperatureF,Mean TemperatureF,Min TemperatureF,Max Dew PointF,MeanDew PointF,Min DewpointF,Max Humidity, Mean Humidity, Min Humidity, Max Sea Level PressureIn, Mean Sea Level PressureIn, Min Sea Level PressureIn, Max VisibilityMiles, Mean VisibilityMiles, Min VisibilityMiles, Max Wind SpeedMPH, Mean Wind SpeedMPH, Max Gust SpeedMPH,PrecipitationIn, CloudCover, Events, WindDirDegrees
2013-6-1,57,54,48,54,49,45,94,84,72,30.07,29.83,29.59,10,9,3,30,20,39,0.06,8,,307
2013-6-2,66,54,42,46,43,39,93,66,37,30.14,30.08,29.99,10,10,10,12,7,,0.00,1,,310
2013-6-3,75,62,50,48,46,43,77,53,36,30.01,29.89,29.78,10,10,10,26,11,34,0.00,0,,128
2013-6-4,73,65,57,63,55,48,94,73,52,30.05,29.93,29.85,10,10,4,17,10,26,0.45,5,Thunderstorm,36
2013-6-5,64,58,51,54,49,45,82,69,59,30.07,30.03,29.99,10,10,10,20,10,25,0.00,6,,290
2013-6-6,66,58,50,54,51,48,94,76,52,30.04,30.01,29.99,10,10,7,12,8,17,0.15,6,,329
2013-6-7,73,60,46,52,48,45,100,63,38,30.05,29.97,29.83,10,10,4,9,2,,0.00,0,,113
2013-6-8,62,58,55,59,55,48,100,86,59,29.83,29.73,29.65,10,8,2,15,10,21,1.22,7,Thunderstorm,103
2013-6-9,68,62,57,59,56,54,100,86,68,29.87,29.74,29.63,10,9,3,28,15,34,0.15,7,,305
2013-6-10,80,64,48,64,57,46,100,78,47,29.88,29.83,29.76,10,7,0,16,6,17,0.00,1,,118
2013-6-11,86,75,64,70,65,61,94,72,48,29.84,29.77,29.71,10,10,10,22,10,30,0.00,0,,87
2013-6-12,75,68,59,70,61,52,94,77,61,30.07,29.87,29.60,10,10,9,24,13,31,0.29,4,Thunderstorm,332
2013-6-13,78,66,55,55,53,50,94,65,41,30.14,30.08,29.99,10,10,10,12,7,,0.00,1,,82
2013-6-14,82,71,60,70,61,54,77,66,57,30.03,29.86,29.74,10,10,9,22,10,31,0.00,1,,131
2013-6-15,78,69,60,66,62,57,94,75,54,30.05,29.90,29.81,10,10,1,20,7,56,1.77,1,Thunderstorm,358
2013-6-16,78,68,57,61,56,48,88,67,34,30.03,29.98,29.91,10,10,4,14,4,,0.00,0,,266
2013-6-17,78,68,57,61,56,54,94,65,42,30.06,30.02,29.97,10,10,6,13,4,17,0.00,0,,311
2013-6-18,82,71,60,59,56,52,88,60,37,30.08,30.02,29.96,10,10,7,9,3,,0.00,0,,331
2013-6-19,87,74,60,64,61,57,88,63,43,29.99,29.91,29.82,10,10,5,21,7,30,0.00,0,,128
2013-6-20,87,78,69,72,67,61,78,66,55,29.88,29.82,29.75,10,10,10,24,12,31,0.00,2,,148
2013-6-21,91,80,69,73,69,61,94,71,46,29.83,29.77,29.72,10,10,8,28,11,34,0.15,0,Thunderstorm,104
2013-6-22,77,70,64,68,65,63,100,83,69,29.96,29.84,29.65,10,10,5,45,13,53,0.30,2,Thunderstorm,83
2013-6-23,78,70,62,68,62,59,94,76,54,29.90,29.83,29.66,10,10,4,29,11,37,0.22,2,Thunderstorm,270
2013-6-24,82,73,64,72,67,61,100,84,66,29.90,29.79,29.71,10,9,2,16,6,24,0.09,2,Thunderstorm,94
2013-6-25,84,76,69,72,69,61,94,75,54,29.74,29.69,29.66,10,9,2,20,8,28,0.04,1,Thunderstorm,133
2013-6-26,89,79,69,72,64,55,94,62,31,29.88,29.81,29.69,10,10,8,15,7,20,0.00,0,,287
2013-6-27,84,76,68,66,64,59,88,67,42,30.02,29.96,29.88,10,10,7,15,6,21,0.22,1,Thunderstorm,282
2013-6-28,84,73,62,64,57,50,83,57,32,30.04,29.99,29.95,10,10,8,25,13,33,0.00,0,,308
2013-6-29,80,70,60,63,56,54,83,64,39,30.00,29.97,29.94,10,10,3,28,14,34,0.09,0,,320
2013-6-30,77,66,55,55,51,46,94,63,34,30.16,30.10,30.01,10,10,5,13,8,18,0.00,0,,349